createdAt,value
2018-12-31T04:01:08.501Z,7.99
2018-12-31T04:06:03.809Z,7.99
2018-12-31T04:11:03.671Z,7.99
2018-12-31T04:16:03.956Z,7.99
2018-12-31T04:21:09.180Z,8.09
2018-12-31T04:26:03.650Z,8.09
2018-12-31T04:31:05.949Z,8.09
2018-12-31T04:36:07.945Z,8.09
2018-12-31T04:41:06.694Z,8.09
2018-12-31T04:46:03.217Z,8.09
2018-12-31T04:51:05.984Z,8.19
2018-12-31T04:56:05.503Z,8.19
2018-12-31T05:01:04.286Z,8.19
2018-12-31T05:06:03.622Z,8.19
2018-12-31T05:11:03.275Z,8.19
2018-12-31T05:16:03.747Z,8.19
2018-12-31T05:21:04.869Z,8.19
2018-12-31T05:26:10.586Z,8.19
2018-12-31T05:31:04.013Z,8.19
2018-12-31T05:36:03.543Z,8.19
2018-12-31T05:41:04.743Z,8.19
2018-12-31T05:46:03.381Z,8.19
2018-12-31T05:51:04.024Z,8.19
2018-12-31T05:56:04.111Z,8.29
2018-12-31T06:01:04.799Z,8.29
2018-12-31T06:06:08.423Z,8.19
2018-12-31T06:11:04.957Z,8.19
2018-12-31T06:16:06.808Z,8.19
2018-12-31T06:21:06.605Z,8.19
2018-12-31T06:26:05.582Z,8.29
2018-12-31T06:31:03.448Z,8.29
2018-12-31T06:36:03.962Z,8.29
2018-12-31T06:41:03.525Z,8.29
2018-12-31T06:46:04.138Z,8.29
2018-12-31T06:51:04.561Z,8.29
2018-12-31T06:56:03.491Z,8.29
2018-12-31T07:01:04.167Z,8.29
2018-12-31T07:06:03.703Z,8.29
2018-12-31T07:11:03.887Z,8.29
2018-12-31T07:16:04.797Z,8.39
2018-12-31T07:21:03.861Z,8.39
2018-12-31T07:26:03.871Z,8.39
2018-12-31T07:31:04.065Z,8.49
2018-12-31T07:36:03.742Z,8.49
2018-12-31T07:41:03.146Z,8.49
2018-12-31T07:46:03.672Z,8.49
2018-12-31T07:51:03.958Z,8.49
2018-12-31T07:56:03.126Z,8.39
2018-12-31T15:16:04.388Z,9.19
2018-12-31T15:21:03.401Z,9.19
2018-12-31T15:26:05.514Z,9.19
2018-12-31T15:31:03.920Z,9.19
2018-12-31T15:36:03.343Z,9.19
2018-12-31T15:41:03.665Z,9.19
2018-12-31T15:46:03.724Z,8.99
2018-12-31T15:51:03.349Z,8.99
2018-12-31T15:56:03.706Z,8.99
2018-12-31T16:01:03.686Z,8.99
2018-12-31T16:06:03.095Z,8.99
2018-12-31T16:11:11.151Z,8.99
2018-12-31T16:16:04.380Z,8.99
2018-12-31T16:21:06.978Z,8.89
2018-12-31T16:26:04.482Z,8.89
2018-12-31T16:31:03.057Z,8.89
2018-12-31T16:36:03.396Z,8.89
2018-12-31T16:41:02.969Z,8.89
2018-12-31T16:46:07.188Z,8.89
2018-12-31T16:51:05.350Z,8.79
2018-12-31T16:56:04.242Z,8.79
2018-12-31T17:01:04.404Z,8.79
2018-12-31T17:06:04.221Z,8.79
2018-12-31T17:11:04.353Z,8.79
2018-12-31T17:16:03.569Z,8.79
2018-12-31T17:21:03.041Z,8.79
2018-12-31T17:26:09.418Z,8.79
2018-12-31T17:31:03.743Z,8.69
2018-12-31T17:36:04.639Z,8.69
2018-12-31T17:41:04.634Z,8.69
2018-12-31T17:46:04.655Z,8.69
2018-12-31T17:51:04.900Z,8.69
2018-12-31T17:56:04.582Z,8.69
2018-12-31T18:01:05.535Z,8.69
2018-12-31T18:06:03.840Z,8.69
2018-12-31T18:11:04.726Z,8.69
2018-12-31T18:16:04.499Z,8.59
2018-12-31T18:21:04.175Z,8.59
2018-12-31T18:26:05.390Z,8.59
2018-12-31T18:31:03.125Z,8.59
2018-12-31T18:36:03.697Z,8.59
2018-12-31T18:41:03.191Z,8.59
2018-12-31T18:46:04.748Z,8.59
2018-12-31T18:51:06.676Z,8.59
2018-12-31T18:56:04.895Z,8.49
2018-12-31T19:01:07.223Z,8.49
2018-12-31T19:06:04.900Z,8.49
2018-12-31T19:11:04.760Z,8.49
2018-12-31T19:16:04.443Z,8.49
2018-12-31T19:21:03.284Z,8.39
2018-12-31T19:26:03.498Z,8.39
2018-12-31T19:31:04.038Z,8.39
2018-12-31T19:36:03.274Z,8.39
2018-12-31T19:41:03.824Z,8.39
2018-12-31T19:46:04.220Z,8.29
2018-12-31T19:51:04.872Z,8.29
2018-12-31T19:56:07.614Z,8.29
2018-12-31T20:01:04.154Z,8.29
2018-12-31T20:06:05.057Z,8.29
2018-12-31T20:11:03.130Z,8.29
2018-12-31T20:16:03.404Z,8.29
2018-12-31T20:21:04.209Z,8.29
2018-12-31T20:26:03.377Z,8.29
2018-12-31T20:31:03.639Z,8.29
2018-12-31T20:36:04.607Z,8.29
2018-12-31T20:41:03.911Z,8.19
2018-12-31T20:46:03.980Z,8.19
2018-12-31T20:51:03.460Z,8.19
2018-12-31T20:56:03.416Z,8.19
2018-12-31T21:01:06.663Z,8.19
2018-12-31T21:06:03.481Z,8.19
2018-12-31T21:11:03.996Z,8.19
2018-12-31T21:16:03.101Z,8.19
2018-12-31T21:21:03.592Z,8.19
2018-12-31T21:26:03.834Z,8.19
2018-12-31T21:31:03.143Z,8.19
2018-12-31T21:36:03.613Z,8.09
2018-12-31T21:41:03.186Z,8.19
2018-12-31T21:46:03.467Z,8.09
2018-12-31T21:51:03.926Z,8.09
2018-12-31T21:56:03.104Z,8.09
2018-12-31T22:01:05.837Z,8.09
2018-12-31T22:06:04.887Z,8.09
2018-12-31T22:11:08.051Z,8.09
2018-12-31T22:16:04.047Z,8.09
2018-12-31T22:21:03.216Z,8.09
2018-12-31T22:26:03.650Z,8.09
2018-12-31T22:31:03.707Z,8.09
2018-12-31T22:36:03.515Z,8.09
2018-12-31T22:41:03.813Z,8.09
